Time;durP1;ratioP1;P1;durP2;ratioP2;P2;SDS_P1;SDS_P2;PMS_P1;PMS_P2;Temp;Humidity;BMP_temperature;BMP_pressure;BME280_temperature;BME280_humidity;BME280_pressure;Samples;Min_cycle;Max_cycle;Signal;HPM_P1;HPM_P2
2022/07/17 00:01:29;;;;;;;0.52;0.47;;;9.20;99.90;;;;;;5013972;28;20049;-83
2022/07/17 00:03:54;;;;;;;0.17;0.17;;;9.30;99.90;;;;;;5029916;28;20491;-83
2022/07/17 00:06:20;;;;;;;0.10;0.10;;;9.20;99.90;;;;;;5034404;28;20051;-83
2022/07/17 00:08:46;;;;;;;0.10;0.10;;;9.10;99.90;;;;;;5035534;28;20103;-83
2022/07/17 00:11:12;;;;;;;0.20;0.20;;;9.60;99.90;;;;;;5034738;28;20041;-83
2022/07/17 00:13:37;;;;;;;0.10;0.10;;;9.10;99.90;;;;;;5016030;28;20054;-83
2022/07/17 00:16:03;;;;;;;0.10;0.10;;;9.10;99.90;;;;;;5033525;28;20049;-83
2022/07/17 00:18:29;;;;;;;0.32;0.32;;;9.10;99.90;;;;;;5036248;28;20045;-83
2022/07/17 00:20:55;;;;;;;0.00;0.00;;;9.10;99.90;;;;;;5034537;28;20438;-80
2022/07/17 00:23:20;;;;;;;0.03;0.03;;;9.10;99.90;;;;;;5034941;28;20092;-80
2022/07/17 00:25:46;;;;;;;0.05;0.05;;;9.10;99.90;;;;;;5017873;28;20040;-80
2022/07/17 00:28:12;;;;;;;0.30;0.30;;;9.00;99.90;;;;;;5035599;28;20466;-80
2022/07/17 00:30:38;;;;;;;0.10;0.10;;;9.10;99.90;;;;;;5035108;28;20041;-80
2022/07/17 00:33:04;;;;;;;0.22;0.22;;;9.10;99.90;;;;;;5032773;28;20029;-80
2022/07/17 00:35:30;;;;;;;0.15;0.15;;;9.10;99.90;;;;;;5017554;28;20037;-80
2022/07/17 00:37:56;;;;;;;0.08;0.08;;;9.00;99.90;;;;;;5032648;28;20075;-82
2022/07/17 00:40:23;;;;;;;0.10;0.10;;;9.00;99.90;;;;;;5035097;28;20123;-83
2022/07/17 00:42:50;;;;;;;0.20;0.20;;;9.00;99.90;;;;;;5035141;28;20424;-83
2022/07/17 00:45:16;;;;;;;0.30;0.30;;;9.00;99.90;;;;;;5034736;28;20073;-83
2022/07/17 00:48:03;;;;;;;1.13;0.32;;;9.00;99.90;;;;;;5033855;28;20130;-83
2022/07/17 00:50:34;;;;;;;0.15;0.15;;;9.00;99.90;;;;;;5034602;28;20045;-83
2022/07/17 00:53:00;;;;;;;0.00;0.00;;;8.90;99.90;;;;;;5016583;28;20048;-79
2022/07/17 00:55:26;;;;;;;0.10;0.10;;;8.90;99.90;;;;;;5034639;28;20041;-78
2022/07/17 00:57:54;;;;;;;0.20;0.20;;;8.90;99.90;;;;;;5034208;28;20046;-78
2022/07/17 01:00:21;;;;;;;0.10;0.10;;;8.90;99.90;;;;;;5016852;28;20065;-78
2022/07/17 01:02:48;;;;;;;0.15;0.15;;;8.90;99.90;;;;;;5032287;28;20045;-79
2022/07/17 01:05:15;;;;;;;0.30;0.28;;;9.20;99.90;;;;;;5033001;28;20045;-78
2022/07/17 01:07:42;;;;;;;0.20;0.20;;;8.80;99.90;;;;;;5034503;28;20052;-78
2022/07/17 01:10:08;;;;;;;0.43;0.43;;;8.80;99.90;;;;;;5016962;28;20099;-80
2022/07/17 01:12:34;;;;;;;0.10;0.10;;;8.80;99.90;;;;;;5016325;28;20077;-80
2022/07/17 01:15:01;;;;;;;0.22;0.22;;;8.70;99.90;;;;;;5033420;28;20128;-80
2022/07/17 01:17:27;;;;;;;0.30;0.30;;;8.90;99.90;;;;;;5000109;28;20488;-80
2022/07/17 01:19:53;;;;;;;0.10;0.10;;;8.80;99.90;;;;;;5033937;28;20083;-80
2022/07/17 01:22:19;;;;;;;0.10;0.10;;;8.80;99.90;;;;;;5035082;28;20049;-80
2022/07/17 01:24:45;;;;;;;0.20;0.20;;;8.80;99.90;;;;;;5033449;28;20083;-80
2022/07/17 01:27:11;;;;;;;0.20;0.20;;;8.80;99.90;;;;;;5031182;28;20041;-79
2022/07/17 01:29:38;;;;;;;0.10;0.10;;;8.80;99.90;;;;;;5034319;28;20045;-79
2022/07/17 01:32:04;;;;;;;0.22;0.22;;;8.80;99.90;;;;;;5034111;28;20508;-79
2022/07/17 01:34:30;;;;;;;0.10;0.10;;;8.80;99.90;;;;;;5034597;28;20044;-78
2022/07/17 01:36:56;;;;;;;0.22;0.22;;;8.70;99.90;;;;;;5031188;28;20041;-78
2022/07/17 01:39:52;;;;;;;1.02;0.63;;;8.70;99.90;;;;;;5017475;28;20048;-79
2022/07/17 01:42:08;;;;;;;0.10;0.10;;;8.70;99.90;;;;;;5019819;28;20116;-79
2022/07/17 01:44:34;;;;;;;0.20;0.20;;;8.80;99.90;;;;;;5034040;28;20132;-79
2022/07/17 01:47:00;;;;;;;0.47;0.47;;;8.80;99.90;;;;;;5015748;28;20559;-79
2022/07/17 01:49:26;;;;;;;0.00;0.00;;;8.80;99.90;;;;;;5034246;28;20048;-79
2022/07/17 01:51:51;;;;;;;0.20;0.20;;;8.80;99.90;;;;;;5032049;28;20465;-78
2022/07/17 01:54:17;;;;;;;4.07;0.45;;;8.80;99.90;;;;;;5001519;28;20232;-79
2022/07/17 01:56:43;;;;;;;0.40;0.40;;;8.80;99.90;;;;;;5017364;28;20045;-78
2022/07/17 01:59:09;;;;;;;0.00;0.00;;;8.80;99.90;;;;;;5032147;28;20037;-78
2022/07/17 02:01:34;;;;;;;0.40;0.40;;;8.70;99.90;;;;;;5032127;28;20049;-78
2022/07/17 02:04:00;;;;;;;0.10;0.10;;;8.80;99.90;;;;;;5033341;28;20041;-79
2022/07/17 02:06:26;;;;;;;0.15;0.15;;;8.80;99.90;;;;;;5017561;28;20056;-79
2022/07/17 02:08:51;;;;;;;0.75;0.47;;;8.80;99.90;;;;;;5032307;28;20033;-78
2022/07/17 02:11:18;;;;;;;0.00;0.00;;;8.80;99.90;;;;;;5016555;28;20452;-78
2022/07/17 02:13:43;;;;;;;0.10;0.10;;;8.80;99.90;;;;;;5016767;28;20484;-78
2022/07/17 02:16:09;;;;;;;0.10;0.10;;;8.80;99.90;;;;;;5001059;28;20052;-82
2022/07/17 02:18:35;;;;;;;0.10;0.10;;;8.80;99.90;;;;;;5014681;28;20037;-83
2022/07/17 02:21:01;;;;;;;0.63;0.40;;;8.80;99.90;;;;;;5016486;28;20088;-83
2022/07/17 02:23:28;;;;;;;0.22;0.22;;;9.30;99.90;;;;;;5033595;28;20448;-83
2022/07/17 02:25:54;;;;;;;0.47;0.47;;;8.80;99.90;;;;;;5022935;28;20037;-83
2022/07/17 02:28:20;;;;;;;0.93;0.50;;;8.80;99.90;;;;;;5032400;28;20121;-83
2022/07/17 02:30:47;;;;;;;0.22;0.22;;;8.80;99.90;;;;;;5014089;28;20033;-83
2022/07/17 02:33:12;;;;;;;0.10;0.10;;;8.80;99.90;;;;;;5015165;28;20038;-82
2022/07/17 02:35:38;;;;;;;0.15;0.15;;;8.80;99.90;;;;;;5033299;28;20044;-82
2022/07/17 02:38:04;;;;;;;0.13;0.13;;;8.90;99.90;;;;;;5033905;28;20034;-81
2022/07/17 02:40:30;;;;;;;0.10;0.10;;;8.70;99.90;;;;;;5013776;28;20121;-82
2022/07/17 02:42:56;;;;;;;0.00;0.00;;;8.70;99.90;;;;;;5031537;28;20120;-82
2022/07/17 02:45:24;;;;;;;0.15;0.15;;;8.70;99.90;;;;;;5031226;28;20041;-82
2022/07/17 02:47:50;;;;;;;0.40;0.40;;;8.70;99.90;;;;;;5029115;28;20053;-82
2022/07/17 02:50:16;;;;;;;0.10;0.10;;;8.70;99.90;;;;;;5033037;28;20455;-83
2022/07/17 02:52:43;;;;;;;0.00;0.00;;;8.80;99.90;;;;;;5032848;28;20041;-83
2022/07/17 02:55:10;;;;;;;0.28;0.28;;;8.70;99.90;;;;;;5016799;28;20053;-83
2022/07/17 02:57:36;;;;;;;0.20;0.20;;;8.70;99.90;;;;;;5031781;28;20399;-83
2022/07/17 03:00:08;;;;;;;0.10;0.10;;;8.70;99.90;;;;;;5031853;28;20053;-82
2022/07/17 03:02:34;;;;;;;0.20;0.20;;;8.70;99.90;;;;;;5016453;28;20486;-83
2022/07/17 03:05:00;;;;;;;0.00;0.00;;;8.70;99.90;;;;;;5032344;28;20120;-83
2022/07/17 03:07:26;;;;;;;0.03;0.03;;;8.60;99.90;;;;;;5032508;28;20045;-83
2022/07/17 03:09:52;;;;;;;0.10;0.10;;;8.60;99.90;;;;;;5031779;28;20041;-83
2022/07/17 03:12:17;;;;;;;0.00;0.00;;;8.60;99.90;;;;;;5015983;28;20484;-83
2022/07/17 03:14:43;;;;;;;0.10;0.10;;;8.60;99.90;;;;;;5032824;28;20041;-83
2022/07/17 03:17:09;;;;;;;0.00;0.00;;;8.60;99.90;;;;;;5032604;28;20369;-83
2022/07/17 03:19:35;;;;;;;0.00;0.00;;;8.60;99.90;;;;;;5024069;28;20041;-83
2022/07/17 03:22:03;;;;;;;0.10;0.10;;;8.50;99.90;;;;;;5016092;28;20096;-82
2022/07/17 03:24:29;;;;;;;0.10;0.10;;;8.50;99.90;;;;;;5012222;28;20507;-80
2022/07/17 03:26:55;;;;;;;0.22;0.22;;;8.50;99.90;;;;;;5027418;28;20049;-80
2022/07/17 03:29:20;;;;;;;0.10;0.10;;;8.60;99.90;;;;;;5014382;28;20478;-80
2022/07/17 03:31:47;;;;;;;0.10;0.10;;;8.60;99.90;;;;;;5025379;28;20458;-80
2022/07/17 03:34:13;;;;;;;0.00;0.00;;;8.60;99.90;;;;;;5015188;28;20057;-80
2022/07/17 03:36:39;;;;;;;0.20;0.20;;;8.70;99.90;;;;;;5028151;28;20491;-80
2022/07/17 03:39:05;;;;;;;0.20;0.20;;;8.80;99.90;;;;;;5014269;28;20040;-80
2022/07/17 03:41:31;;;;;;;0.10;0.10;;;8.90;99.90;;;;;;5014012;28;20076;-79
2022/07/17 03:43:56;;;;;;;0.10;0.10;;;9.00;99.90;;;;;;5031150;28;20084;-79
2022/07/17 03:46:22;;;;;;;0.10;0.10;;;9.10;99.90;;;;;;5012780;28;20049;-79
2022/07/17 03:48:48;;;;;;;0.00;0.00;;;9.20;99.90;;;;;;5031816;28;20487;-79
2022/07/17 03:51:14;;;;;;;0.10;0.10;;;10.00;99.90;;;;;;5031749;28;20078;-78
2022/07/17 03:53:40;;;;;;;0.20;0.20;;;9.50;99.90;;;;;;5032190;28;20038;-78
2022/07/17 03:56:06;;;;;;;0.00;0.00;;;9.50;99.90;;;;;;4998369;28;20045;-78
2022/07/17 03:58:32;;;;;;;0.05;0.05;;;9.60;99.90;;;;;;5031471;28;20041;-80
2022/07/17 04:00:58;;;;;;;0.10;0.10;;;9.60;99.90;;;;;;5030366;28;20128;-80
2022/07/17 04:03:24;;;;;;;0.08;0.08;;;9.80;99.90;;;;;;5015290;28;20033;-80
2022/07/17 04:05:50;;;;;;;0.10;0.10;;;9.80;99.90;;;;;;5015492;28;20107;-80
2022/07/17 04:08:16;;;;;;;0.00;0.00;;;9.90;99.90;;;;;;5030925;28;20052;-80
2022/07/17 04:10:42;;;;;;;0.10;0.10;;;10.00;99.90;;;;;;5032375;28;20072;-80
2022/07/17 04:13:08;;;;;;;0.10;0.10;;;10.50;99.90;;;;;;5032297;28;20082;-80
2022/07/17 04:16:07;;;;;;;0.20;0.20;;;10.20;99.90;;;;;;5031749;28;20053;-80
2022/07/17 04:18:31;;;;;;;0.30;0.30;;;10.20;99.90;;;;;;5029522;28;20065;-80
2022/07/17 04:21:00;;;;;;;0.00;0.00;;;10.40;99.90;;;;;;5015577;28;20132;-80
2022/07/17 04:23:26;;;;;;;0.65;0.47;;;10.50;99.90;;;;;;5015605;28;20041;-80
2022/07/17 04:25:52;;;;;;;0.00;0.00;;;10.60;99.90;;;;;;5016615;28;20389;-80
2022/07/17 04:28:18;;;;;;;0.10;0.10;;;10.60;99.90;;;;;;5030956;28;20034;-80
2022/07/17 04:30:44;;;;;;;0.10;0.10;;;10.80;99.90;;;;;;5014989;28;20056;-79
2022/07/17 04:33:10;;;;;;;0.03;0.03;;;10.90;99.90;;;;;;5015504;28;20041;-79
2022/07/17 04:35:36;;;;;;;0.10;0.10;;;11.00;99.90;;;;;;5032048;28;20053;-79
2022/07/17 04:38:02;;;;;;;0.10;0.10;;;11.10;99.90;;;;;;5015523;28;20095;-79
2022/07/17 04:40:28;;;;;;;0.00;0.00;;;11.20;99.90;;;;;;5031023;28;20522;-79
2022/07/17 04:42:54;;;;;;;0.10;0.10;;;11.40;99.90;;;;;;5015482;28;20072;-79
2022/07/17 04:45:23;;;;;;;0.08;0.08;;;11.40;99.90;;;;;;5032195;28;20044;-79
2022/07/17 04:47:48;;;;;;;0.05;0.05;;;11.60;99.90;;;;;;5015835;28;20045;-82
2022/07/17 04:50:15;;;;;;;0.10;0.10;;;11.70;99.90;;;;;;5030679;28;20082;-82
2022/07/17 04:52:40;;;;;;;0.10;0.10;;;11.70;99.90;;;;;;5018830;28;20073;-82
2022/07/17 04:55:06;;;;;;;0.57;0.40;;;11.90;99.90;;;;;;5002725;28;20045;-82
2022/07/17 04:57:33;;;;;;;0.15;0.15;;;11.90;99.90;;;;;;5035255;28;20369;-82
2022/07/17 04:59:58;;;;;;;0.20;0.20;;;12.00;99.90;;;;;;5032963;28;21039;-82
2022/07/17 05:02:24;;;;;;;0.10;0.10;;;12.10;99.90;;;;;;5035374;28;20041;-82
2022/07/17 05:04:50;;;;;;;0.10;0.10;;;12.20;99.90;;;;;;5035083;28;20044;-80
2022/07/17 05:07:16;;;;;;;0.15;0.15;;;12.30;99.90;;;;;;5035131;28;20049;-80
2022/07/17 05:09:42;;;;;;;1.30;0.55;;;12.30;99.90;;;;;;5018495;28;20041;-80
2022/07/17 05:12:08;;;;;;;0.20;0.20;;;12.50;99.90;;;;;;5030180;28;20044;-80
2022/07/17 05:14:34;;;;;;;0.00;0.00;;;12.60;99.90;;;;;;5025639;28;20069;-80
2022/07/17 05:17:00;;;;;;;0.00;0.00;;;12.70;99.90;;;;;;5035120;28;20037;-80
2022/07/17 05:19:26;;;;;;;0.20;0.20;;;12.80;99.90;;;;;;5034190;28;20037;-81
2022/07/17 05:21:52;;;;;;;0.20;0.20;;;12.80;99.90;;;;;;5001267;28;20042;-79
2022/07/17 05:24:18;;;;;;;0.08;0.08;;;12.90;99.90;;;;;;5034012;28;20130;-79
2022/07/17 05:26:44;;;;;;;0.00;0.00;;;13.10;99.90;;;;;;5016366;28;20476;-79
2022/07/17 05:29:10;;;;;;;0.00;0.00;;;13.10;99.90;;;;;;5017093;28;20124;-79
2022/07/17 05:31:35;;;;;;;0.75;0.47;;;13.20;99.90;;;;;;5017382;28;20116;-79
2022/07/17 05:34:01;;;;;;;0.10;0.10;;;13.30;99.90;;;;;;5032540;28;20033;-79
2022/07/17 05:36:27;;;;;;;0.10;0.10;;;13.40;99.90;;;;;;5034221;28;20053;-79
2022/07/17 05:38:53;;;;;;;0.00;0.00;;;13.60;99.90;;;;;;5034662;28;20038;-79
2022/07/17 05:41:19;;;;;;;0.10;0.10;;;13.80;99.90;;;;;;5015080;28;20037;-79
2022/07/17 05:43:44;;;;;;;0.00;0.00;;;14.00;99.90;;;;;;5032710;28;20341;-79
2022/07/17 05:46:11;;;;;;;0.00;0.00;;;14.40;99.90;;;;;;5034398;28;20103;-79
2022/07/17 05:48:36;;;;;;;0.10;0.10;;;14.80;99.90;;;;;;5034221;28;20475;-79
2022/07/17 05:51:02;;;;;;;0.22;0.22;;;15.20;99.90;;;;;;5034658;28;20094;-79
2022/07/17 05:53:28;;;;;;;0.25;0.25;;;15.50;99.90;;;;;;5016465;28;20046;-80
2022/07/17 05:55:54;;;;;;;0.10;0.10;;;15.90;99.90;;;;;;5017418;28;20038;-81
2022/07/17 05:58:19;;;;;;;0.28;0.20;;;16.70;99.90;;;;;;5017391;28;20187;-81
2022/07/17 06:00:45;;;;;;;0.00;0.00;;;17.10;99.90;;;;;;5019954;28;20510;-80
2022/07/17 06:03:11;;;;;;;0.10;0.10;;;17.30;99.90;;;;;;5031873;28;20050;-81
2022/07/17 06:05:37;;;;;;;0.10;0.10;;;17.40;99.90;;;;;;5018080;28;20041;-82
2022/07/17 06:08:03;;;;;;;0.00;0.00;;;18.00;99.90;;;;;;5017503;28;20472;-82
2022/07/17 06:10:29;;;;;;;0.00;0.00;;;18.80;99.90;;;;;;5001389;28;20049;-86
2022/07/17 06:12:56;;;;;;;0.00;0.00;;;19.20;99.90;;;;;;5032878;28;20033;-86
2022/07/17 06:15:22;;;;;;;0.10;0.10;;;19.30;99.90;;;;;;5033852;28;20099;-86
2022/07/17 06:17:48;;;;;;;0.08;0.08;;;20.10;99.90;;;;;;5017165;28;20124;-86
2022/07/17 06:20:15;;;;;;;0.55;0.55;;;21.00;99.90;;;;;;5034051;28;20041;-86
2022/07/17 06:22:41;;;;;;;0.10;0.10;;;22.40;97.80;;;;;;5032711;28;20044;-86
2022/07/17 06:25:08;;;;;;;0.00;0.00;;;23.10;97.90;;;;;;5032088;28;20085;-86
2022/07/17 06:27:34;;;;;;;0.10;0.10;;;23.40;95.80;;;;;;5033394;28;20041;-83
2022/07/17 06:30:00;;;;;;;0.05;0.05;;;23.80;93.80;;;;;;5033661;28;20049;-83
2022/07/17 06:32:26;;;;;;;0.00;0.00;;;23.60;92.80;;;;;;5017097;28;20041;-83
2022/07/17 06:34:52;;;;;;;0.10;0.10;;;23.50;94.90;;;;;;5016660;28;20068;-83
2022/07/17 06:37:17;;;;;;;0.10;0.10;;;24.20;95.30;;;;;;5033072;28;20391;-84
2022/07/17 06:39:43;;;;;;;0.10;0.10;;;24.40;93.40;;;;;;5031262;28;20079;-84
2022/07/17 06:42:10;;;;;;;0.05;0.05;;;24.80;91.40;;;;;;5032373;28;20061;-83
2022/07/17 06:44:36;;;;;;;0.00;0.00;;;24.40;92.30;;;;;;5009350;28;20112;-86
2022/07/17 06:47:02;;;;;;;0.00;0.00;;;23.70;92.10;;;;;;5023008;28;20059;-86
2022/07/17 06:49:28;;;;;;;0.00;0.00;;;22.90;93.10;;;;;;5020633;28;20772;-86
2022/07/17 06:51:54;;;;;;;0.10;0.10;;;22.10;94.10;;;;;;5030822;28;20513;-86
2022/07/17 06:54:23;;;;;;;0.00;0.00;;;21.60;94.30;;;;;;5032104;28;20095;-86
2022/07/17 06:56:49;;;;;;;1.42;1.02;;;21.10;95.40;;;;;;5006774;28;20120;-86
2022/07/17 06:59:15;;;;;;;0.10;0.10;;;20.70;95.90;;;;;;5015676;28;20038;-86
2022/07/17 07:01:40;;;;;;;0.00;0.00;;;20.30;97.00;;;;;;5011365;28;20052;-86
2022/07/17 07:04:06;;;;;;;0.30;0.30;;;20.10;96.40;;;;;;5001944;28;20046;-86
2022/07/17 07:06:32;;;;;;;0.00;0.00;;;19.80;97.50;;;;;;5014435;28;20049;-86
2022/07/17 07:08:58;;;;;;;0.38;0.30;;;19.60;98.30;;;;;;5029782;28;20046;-86
2022/07/17 07:11:24;;;;;;;0.10;0.10;;;19.60;98.60;;;;;;5011736;28;20476;-87
2022/07/17 07:13:50;;;;;;;0.00;0.00;;;19.50;99.10;;;;;;5029353;28;20407;-86
2022/07/17 07:16:16;;;;;;;0.10;0.10;;;19.50;98.70;;;;;;5010811;28;20037;-86
2022/07/17 07:18:42;;;;;;;0.00;0.00;;;19.50;98.50;;;;;;5016155;28;20041;-86
2022/07/17 07:21:07;;;;;;;0.38;0.38;;;19.60;98.40;;;;;;5016380;28;20124;-86
2022/07/17 07:23:33;;;;;;;0.20;0.20;;;19.70;98.50;;;;;;5031769;28;20041;-86
2022/07/17 07:25:59;;;;;;;0.10;0.10;;;19.70;99.10;;;;;;5031096;28;20041;-86
2022/07/17 07:28:25;;;;;;;0.30;0.30;;;19.70;99.00;;;;;;5015177;28;20042;-86
2022/07/17 07:30:51;;;;;;;0.55;0.55;;;19.70;98.90;;;;;;5051311;28;20041;-86
2022/07/17 07:33:16;;;;;;;1.65;0.95;;;19.80;99.00;;;;;;5052541;28;20037;-83
2022/07/17 07:35:43;;;;;;;0.00;0.00;;;19.90;98.40;;;;;;5034811;28;20411;-82
2022/07/17 07:38:10;;;;;;;1.67;1.00;;;20.50;98.70;;;;;;5032066;28;20049;-83
2022/07/17 07:40:36;;;;;;;0.00;0.00;;;21.70;97.90;;;;;;5031967;28;20037;-83
2022/07/17 07:43:02;;;;;;;0.00;0.00;;;23.60;96.70;;;;;;5014857;28;20388;-82
2022/07/17 07:45:28;;;;;;;0.10;0.10;;;24.90;93.80;;;;;;5026176;28;20069;-83
2022/07/17 07:47:54;;;;;;;0.00;0.00;;;27.10;92.00;;;;;;5025459;28;20499;-83
2022/07/17 07:50:23;;;;;;;0.00;0.00;;;28.40;89.80;;;;;;5033569;28;20045;-83
2022/07/17 07:52:49;;;;;;;0.00;0.00;;;28.40;90.00;;;;;;5032498;28;20494;-85
2022/07/17 07:55:15;;;;;;;0.20;0.20;;;28.90;89.10;;;;;;4998876;28;20045;-85
2022/07/17 07:57:41;;;;;;;0.10;0.10;;;29.70;88.60;;;;;;5014870;28;20494;-85
2022/07/17 08:00:09;;;;;;;0.10;0.10;;;29.60;80.30;;;;;;5030053;28;20132;-85
2022/07/17 08:02:35;;;;;;;0.20;0.20;;;30.10;82.30;;;;;;5031512;28;20036;-85
2022/07/17 08:05:01;;;;;;;0.10;0.10;;;30.70;78.10;;;;;;5031621;28;20041;-85
2022/07/17 08:07:28;;;;;;;0.10;0.10;;;31.30;83.70;;;;;;5013662;28;20048;-83
2022/07/17 08:09:54;;;;;;;0.00;0.00;;;31.10;76.10;;;;;;5020909;28;20112;-83
2022/07/17 08:12:20;;;;;;;0.10;0.10;;;31.20;75.00;;;;;;5029390;28;20128;-84
2022/07/17 08:14:46;;;;;;;2.30;0.43;;;31.20;77.40;;;;;;5013920;28;20050;-83
2022/07/17 08:17:11;;;;;;;0.10;0.10;;;31.30;78.10;;;;;;5031041;28;20049;-83
2022/07/17 08:19:37;;;;;;;0.15;0.15;;;31.50;76.70;;;;;;5013549;28;20506;-83
2022/07/17 08:22:03;;;;;;;0.40;0.40;;;31.50;76.00;;;;;;5031245;28;20041;-83
2022/07/17 08:24:29;;;;;;;0.00;0.00;;;31.30;76.10;;;;;;5015246;28;20041;-85
2022/07/17 08:26:56;;;;;;;0.10;0.10;;;31.50;76.00;;;;;;5018908;28;20472;-85
2022/07/17 08:29:21;;;;;;;0.30;0.30;;;31.80;75.70;;;;;;5035739;28;20045;-85
2022/07/17 08:31:50;;;;;;;0.10;0.10;;;31.80;72.10;;;;;;5018586;28;20144;-85
2022/07/17 08:34:16;;;;;;;0.10;0.10;;;32.00;74.20;;;;;;5035718;28;20045;-85
2022/07/17 08:36:42;;;;;;;0.10;0.10;;;32.30;73.00;;;;;;5035143;28;20044;-85
2022/07/17 08:39:08;;;;;;;0.00;0.00;;;32.30;72.10;;;;;;5035999;28;20041;-85
2022/07/17 08:41:38;;;;;;;0.30;0.30;;;32.40;71.20;;;;;;5035568;28;20076;-85
2022/07/17 08:44:06;;;;;;;0.10;0.10;;;32.50;71.10;;;;;;5033292;28;20049;-85
2022/07/17 08:46:36;;;;;;;0.10;0.10;;;32.80;69.30;;;;;;5034783;28;20038;-85
2022/07/17 08:49:04;;;;;;;0.20;0.20;;;33.00;70.40;;;;;;5030564;28;20045;-86
2022/07/17 08:51:30;;;;;;;0.65;0.65;;;33.20;71.90;;;;;;5031599;28;20405;-86
2022/07/17 08:53:56;;;;;;;0.10;0.10;;;33.30;70.40;;;;;;5007862;28;20368;-86
2022/07/17 08:56:22;;;;;;;0.15;0.15;;;33.30;68.00;;;;;;4994997;28;20046;-85
2022/07/17 08:58:48;;;;;;;0.10;0.10;;;32.90;65.50;;;;;;5026812;28;20040;-85
2022/07/17 09:01:16;;;;;;;0.55;0.22;;;33.20;69.70;;;;;;5028840;28;20103;-85
2022/07/17 09:03:52;;;;;;;0.10;0.10;;;33.80;69.90;;;;;;5025454;28;20034;-86
2022/07/17 09:06:19;;;;;;;0.10;0.10;;;33.90;66.60;;;;;;5030164;28;20053;-85
2022/07/17 09:08:45;;;;;;;0.00;0.00;;;33.90;68.30;;;;;;5035660;28;20046;-86
2022/07/17 09:11:10;;;;;;;0.10;0.10;;;33.60;66.50;;;;;;5018521;28;20518;-86
2022/07/17 09:13:36;;;;;;;1.30;0.30;;;33.70;67.70;;;;;;4986678;28;20049;-86
2022/07/17 09:16:11;;;;;;;0.10;0.10;;;33.40;67.40;;;;;;5034438;28;20033;-85
2022/07/17 09:18:44;;;;;;;0.10;0.10;;;33.10;67.30;;;;;;5034466;28;20073;-85
2022/07/17 09:21:18;;;;;;;0.00;0.00;;;32.80;65.70;;;;;;5026157;28;20046;-85
2022/07/17 09:23:43;;;;;;;0.52;0.52;;;32.90;67.20;;;;;;5018204;28;20050;-86
2022/07/17 09:26:09;;;;;;;0.32;0.30;;;33.10;64.70;;;;;;5034056;28;20499;-86
2022/07/17 09:28:45;;;;;;;0.10;0.10;;;33.10;65.00;;;;;;5029062;28;20154;-86
2022/07/17 09:31:11;;;;;;;0.10;0.10;;;33.40;64.30;;;;;;5034138;28;20120;-84
2022/07/17 09:33:37;;;;;;;0.00;0.00;;;33.90;65.10;;;;;;5034140;28;20128;-84
2022/07/17 09:36:08;;;;;;;1.40;0.57;;;33.80;65.90;;;;;;5017514;28;20510;-84
2022/07/17 09:38:37;;;;;;;0.20;0.20;;;33.90;64.40;;;;;;5013583;28;20034;-84
2022/07/17 09:41:09;;;;;;;0.30;0.30;;;34.00;63.60;;;;;;5019013;28;20034;-84
2022/07/17 09:43:49;;;;;;;0.10;0.10;;;34.10;64.80;;;;;;5032344;28;20069;-84
2022/07/17 09:46:18;;;;;;;0.10;0.10;;;34.40;64.30;;;;;;5034554;28;20144;-84
2022/07/17 09:48:47;;;;;;;0.10;0.10;;;34.30;62.70;;;;;;5034413;28;20056;-84
2022/07/17 09:51:23;;;;;;;0.17;0.10;;;34.40;64.50;;;;;;5039550;28;20045;-84
2022/07/17 09:53:51;;;;;;;0.65;0.22;;;34.30;62.90;;;;;;5014218;28;20096;-84
2022/07/17 09:56:19;;;;;;;0.28;0.28;;;34.30;62.10;;;;;;5007758;28;20041;-84
2022/07/17 09:58:53;;;;;;;0.10;0.10;;;34.20;61.70;;;;;;5029912;28;20183;-84
2022/07/17 10:01:20;;;;;;;0.03;0.03;;;34.30;62.70;;;;;;5029541;28;20101;-84
2022/07/17 10:03:53;;;;;;;0.10;0.10;;;34.80;63.70;;;;;;5024982;28;20041;-86
2022/07/17 10:06:19;;;;;;;0.00;0.00;;;35.20;63.70;;;;;;5017268;28;20094;-86
2022/07/17 10:08:44;;;;;;;0.20;0.20;;;35.20;63.90;;;;;;5041807;28;20037;-86
2022/07/17 10:11:11;;;;;;;0.10;0.10;;;35.20;63.40;;;;;;5034152;28;20095;-86
2022/07/17 10:16:05;;;;;;;0.28;0.15;;;35.20;63.30;;;;;;5033380;28;20365;-87
2022/07/17 10:18:44;;;;;;;0.15;0.15;;;35.40;63.10;;;;;;5014933;28;20155;-87
2022/07/17 10:21:16;;;;;;;0.10;0.10;;;35.20;61.60;;;;;;5013921;28;20044;-87
2022/07/17 10:23:48;;;;;;;2.55;1.20;;;35.20;61.50;;;;;;5018332;28;20033;-87
2022/07/17 10:26:17;;;;;;;0.20;0.10;;;35.20;62.10;;;;;;5001669;28;20087;-87
2022/07/17 10:28:45;;;;;;;4.63;0.20;;;35.00;61.30;;;;;;5034144;28;20037;-87
2022/07/17 10:31:23;;;;;;;0.35;0.25;;;34.80;61.70;;;;;;5033357;28;20501;-87
2022/07/17 10:34:06;;;;;;;0.10;0.10;;;34.60;61.60;;;;;;5049769;28;20064;-87
2022/07/17 10:36:43;;;;;;;0.10;0.10;;;35.00;62.70;;;;;;5034359;28;20041;-84
2022/07/17 10:39:16;;;;;;;0.10;0.10;;;35.30;61.20;;;;;;5017002;28;20053;-84
2022/07/17 10:41:43;;;;;;;0.10;0.10;;;35.70;62.90;;;;;;5017231;28;20043;-84
2022/07/17 10:44:09;;;;;;;1.08;0.30;;;35.80;61.20;;;;;;5033045;28;20500;-84
2022/07/17 10:46:35;;;;;;;0.15;0.15;;;35.70;60.80;;;;;;5017037;28;20046;-84
2022/07/17 10:49:03;;;;;;;0.20;0.20;;;35.70;60.20;;;;;;5015999;28;20073;-84
2022/07/17 10:51:30;;;;;;;0.10;0.10;;;35.90;60.90;;;;;;5016473;28;20049;-83
2022/07/17 10:54:00;;;;;;;0.80;0.80;;;35.90;60.30;;;;;;5015863;28;20037;-83
2022/07/17 10:56:26;;;;;;;0.10;0.10;;;36.20;61.10;;;;;;5033126;28;20041;-83
2022/07/17 10:58:53;;;;;;;0.28;0.28;;;36.00;58.40;;;;;;5004467;28;20078;-83
2022/07/17 11:01:20;;;;;;;0.10;0.10;;;36.20;59.20;;;;;;5021628;28;20029;-83
2022/07/17 11:03:47;;;;;;;0.10;0.10;;;36.00;59.90;;;;;;4996376;28;20056;-83
2022/07/17 11:06:23;;;;;;;0.63;0.43;;;35.90;60.30;;;;;;5032847;28;20072;-83
2022/07/17 11:08:50;;;;;;;0.10;0.10;;;35.60;61.00;;;;;;5013196;28;20472;-83
2022/07/17 11:11:18;;;;;;;0.13;0.10;;;35.40;61.00;;;;;;5000808;28;20096;-83
2022/07/17 11:13:48;;;;;;;0.10;0.10;;;35.30;61.40;;;;;;5011894;28;20045;-83
2022/07/17 11:16:29;;;;;;;0.08;0.08;;;35.20;60.90;;;;;;5005790;28;20062;-83
2022/07/17 11:18:56;;;;;;;0.10;0.10;;;35.30;61.00;;;;;;5012877;28;20381;-83
2022/07/17 11:21:22;;;;;;;0.32;0.32;;;35.30;61.00;;;;;;5012562;28;20476;-83
2022/07/17 11:23:53;;;;;;;0.03;0.03;;;35.30;60.00;;;;;;5015672;28;20052;-83
2022/07/17 11:26:22;;;;;;;0.00;0.00;;;35.10;59.90;;;;;;5015690;28;20548;-82
2022/07/17 11:28:50;;;;;;;0.10;0.10;;;35.20;61.20;;;;;;5016245;28;20044;-83
2022/07/17 11:31:24;;;;;;;0.15;0.15;;;34.90;60.40;;;;;;5032205;28;20120;-83
2022/07/17 11:34:03;;;;;;;0.20;0.20;;;35.00;61.80;;;;;;5049108;28;20045;-83
2022/07/17 11:36:32;;;;;;;0.00;0.00;;;35.10;61.20;;;;;;5032069;28;20518;-83
2022/07/17 11:39:00;;;;;;;0.05;0.05;;;35.00;59.70;;;;;;5032774;28;20073;-83
2022/07/17 11:41:37;;;;;;;0.10;0.10;;;34.90;60.50;;;;;;5033027;28;20041;-82
2022/07/17 11:44:13;;;;;;;0.30;0.30;;;34.70;59.20;;;;;;5025642;28;20383;-85
2022/07/17 11:46:45;;;;;;;0.30;0.25;;;34.40;60.30;;;;;;5015444;28;20049;-85
2022/07/17 11:49:22;;;;;;;0.47;0.47;;;34.10;60.20;;;;;;5012720;28;20041;-85
2022/07/17 11:51:48;;;;;;;0.28;0.28;;;34.00;60.50;;;;;;4996332;28;20046;-85
2022/07/17 11:54:16;;;;;;;0.20;0.20;;;33.80;59.60;;;;;;5012233;28;20064;-85
2022/07/17 11:56:50;;;;;;;0.20;0.20;;;34.10;59.90;;;;;;5021600;28;20049;-85
2022/07/17 11:59:27;;;;;;;0.10;0.10;;;34.10;60.10;;;;;;5032558;28;20171;-86
2022/07/17 12:01:53;;;;;;;0.22;0.22;;;34.20;60.20;;;;;;5016968;28;20091;-83
2022/07/17 12:04:20;;;;;;;0.10;0.10;;;34.50;60.10;;;;;;5019690;28;20049;-84
2022/07/17 12:06:57;;;;;;;0.28;0.10;;;34.70;61.00;;;;;;5020038;28;20056;-84
2022/07/17 12:09:27;;;;;;;0.00;0.00;;;35.00;61.20;;;;;;5020456;28;20041;-88
2022/07/17 12:11:53;;;;;;;0.10;0.10;;;35.00;60.60;;;;;;5035717;28;20033;-86
2022/07/17 12:14:19;;;;;;;0.25;0.25;;;35.20;58.30;;;;;;5050607;28;20088;-86
2022/07/17 12:16:45;;;;;;;0.10;0.10;;;34.80;59.10;;;;;;5003371;28;20057;-88
2022/07/17 12:19:18;;;;;;;0.17;0.17;;;34.50;59.40;;;;;;5036013;28;20041;-88
2022/07/17 12:21:59;;;;;;;0.45;0.25;;;34.60;59.80;;;;;;5035744;28;20119;-88
2022/07/17 12:24:33;;;;;;;0.43;0.43;;;34.50;58.80;;;;;;5018928;28;20044;-88
2022/07/17 12:27:05;;;;;;;0.30;0.20;;;34.50;59.30;;;;;;5035426;28;20049;-87
2022/07/17 12:29:31;;;;;;;0.30;0.30;;;34.50;58.60;;;;;;5052731;28;20037;-88
2022/07/17 12:32:10;;;;;;;0.98;0.35;;;34.50;59.40;;;;;;5035595;28;20114;-88
2022/07/17 12:34:44;;;;;;;0.10;0.10;;;34.40;59.70;;;;;;5035334;28;20045;-88
2022/07/17 12:37:21;;;;;;;0.30;0.30;;;34.10;59.60;;;;;;5019199;28;20049;-88
2022/07/17 12:39:48;;;;;;;0.10;0.10;;;34.10;59.00;;;;;;5035882;28;20095;-88
2022/07/17 12:42:17;;;;;;;0.75;0.68;;;34.00;59.20;;;;;;5035595;28;20099;-88
2022/07/17 12:44:43;;;;;;;0.00;0.00;;;33.90;58.50;;;;;;5034811;28;20045;-87
2022/07/17 12:47:09;;;;;;;0.35;0.35;;;33.80;59.30;;;;;;5035703;28;20044;-88
2022/07/17 12:49:35;;;;;;;0.63;0.25;;;33.70;60.00;;;;;;5035730;28;20382;-86
2022/07/17 12:52:02;;;;;;;0.52;0.28;;;33.70;59.30;;;;;;5035422;28;20049;-85
2022/07/17 12:54:28;;;;;;;1.13;0.63;;;33.50;59.00;;;;;;5035144;28;20041;-85